sensor_id;sensor_type;location;lat;lon;timestamp;P1;durP1;ratioP1;P2;durP2;ratioP2
57323;SDS011;43160;51.008;18.248;2023-06-19T00:09:04;13.80;;;6.30;;
57323;SDS011;43160;51.008;18.248;2023-06-19T00:18:47;16.00;;;5.70;;
57323;SDS011;43160;51.008;18.248;2023-06-19T00:28:30;13.30;;;5.50;;
57323;SDS011;43160;51.008;18.248;2023-06-19T00:38:15;9.50;;;2.70;;
57323;SDS011;43160;51.008;18.248;2023-06-19T00:47:59;13.90;;;6.90;;
57323;SDS011;43160;51.008;18.248;2023-06-19T00:57:43;17.30;;;5.00;;
57323;SDS011;43160;51.008;18.248;2023-06-19T01:17:32;18.20;;;6.80;;
57323;SDS011;43160;51.008;18.248;2023-06-19T01:27:19;20.40;;;8.30;;
57323;SDS011;43160;51.008;18.248;2023-06-19T01:37:11;30.60;;;12.00;;
57323;SDS011;43160;51.008;18.248;2023-06-19T01:46:55;12.00;;;5.20;;
57323;SDS011;43160;51.008;18.248;2023-06-19T02:03:55;19.00;;;9.00;;
57323;SDS011;43160;51.008;18.248;2023-06-19T02:13:41;19.50;;;6.50;;
57323;SDS011;43160;51.008;18.248;2023-06-19T02:23:25;15.00;;;7.60;;
57323;SDS011;43160;51.008;18.248;2023-06-19T02:40:24;13.60;;;4.80;;
57323;SDS011;43160;51.008;18.248;2023-06-19T02:50:07;17.50;;;7.90;;
57323;SDS011;43160;51.008;18.248;2023-06-19T02:59:54;18.30;;;9.40;;
57323;SDS011;43160;51.008;18.248;2023-06-19T03:09:39;18.10;;;8.30;;
57323;SDS011;43160;51.008;18.248;2023-06-19T03:19:22;19.60;;;10.30;;
57323;SDS011;43160;51.008;18.248;2023-06-19T03:29:06;17.50;;;8.60;;
57323;SDS011;43160;51.008;18.248;2023-06-19T03:38:48;12.80;;;6.10;;
57323;SDS011;43160;51.008;18.248;2023-06-19T03:48:31;22.40;;;8.60;;
57323;SDS011;43160;51.008;18.248;2023-06-19T03:58:15;15.90;;;8.80;;
57323;SDS011;43160;51.008;18.248;2023-06-19T04:08:00;16.00;;;8.50;;
57323;SDS011;43160;51.008;18.248;2023-06-19T04:17:47;14.30;;;8.00;;
57323;SDS011;43160;51.008;18.248;2023-06-19T04:27:32;40.40;;;13.20;;
57323;SDS011;43160;51.008;18.248;2023-06-19T04:37:16;28.60;;;11.10;;
57323;SDS011;43160;51.008;18.248;2023-06-19T04:47:13;20.90;;;9.90;;
57323;SDS011;43160;51.008;18.248;2023-06-19T04:56:58;22.10;;;11.60;;
57323;SDS011;43160;51.008;18.248;2023-06-19T05:06:45;20.90;;;9.50;;
57323;SDS011;43160;51.008;18.248;2023-06-19T05:16:28;14.70;;;7.70;;
57323;SDS011;43160;51.008;18.248;2023-06-19T05:26:19;15.60;;;8.60;;
57323;SDS011;43160;51.008;18.248;2023-06-19T05:36:03;14.40;;;8.00;;
57323;SDS011;43160;51.008;18.248;2023-06-19T05:45:50;16.50;;;8.90;;
57323;SDS011;43160;51.008;18.248;2023-06-19T05:55:33;15.80;;;9.00;;
57323;SDS011;43160;51.008;18.248;2023-06-19T06:05:17;13.70;;;8.00;;
57323;SDS011;43160;51.008;18.248;2023-06-19T06:15:06;14.30;;;8.00;;
57323;SDS011;43160;51.008;18.248;2023-06-19T06:24:50;11.60;;;6.60;;
57323;SDS011;43160;51.008;18.248;2023-06-19T06:34:33;14.20;;;8.50;;
57323;SDS011;43160;51.008;18.248;2023-06-19T06:44:17;13.90;;;8.70;;
57323;SDS011;43160;51.008;18.248;2023-06-19T06:54:00;11.00;;;5.90;;
57323;SDS011;43160;51.008;18.248;2023-06-19T07:03:43;11.10;;;6.20;;
57323;SDS011;43160;51.008;18.248;2023-06-19T07:13:26;11.60;;;6.00;;
57323;SDS011;43160;51.008;18.248;2023-06-19T07:30:27;10.90;;;5.50;;
57323;SDS011;43160;51.008;18.248;2023-06-19T07:40:10;13.00;;;5.70;;
57323;SDS011;43160;51.008;18.248;2023-06-19T07:49:55;12.00;;;6.10;;
57323;SDS011;43160;51.008;18.248;2023-06-19T07:59:46;9.90;;;5.10;;
57323;SDS011;43160;51.008;18.248;2023-06-19T08:09:30;9.00;;;4.10;;
57323;SDS011;43160;51.008;18.248;2023-06-19T08:19:14;10.80;;;5.30;;
57323;SDS011;43160;51.008;18.248;2023-06-19T08:28:57;9.00;;;4.20;;
57323;SDS011;43160;51.008;18.248;2023-06-19T08:38:46;9.40;;;4.20;;
57323;SDS011;43160;51.008;18.248;2023-06-19T08:48:38;14.50;;;4.50;;
57323;SDS011;43160;51.008;18.248;2023-06-19T08:58:34;9.80;;;4.50;;
57323;SDS011;43160;51.008;18.248;2023-06-19T09:08:18;11.40;;;5.30;;
57323;SDS011;43160;51.008;18.248;2023-06-19T09:18:23;9.90;;;4.90;;
57323;SDS011;43160;51.008;18.248;2023-06-19T09:28:16;11.20;;;5.40;;
57323;SDS011;43160;51.008;18.248;2023-06-19T09:38:25;9.90;;;4.70;;
57323;SDS011;43160;51.008;18.248;2023-06-19T09:48:22;9.20;;;4.00;;
57323;SDS011;43160;51.008;18.248;2023-06-19T09:58:24;9.80;;;4.90;;
57323;SDS011;43160;51.008;18.248;2023-06-19T10:08:08;10.70;;;5.60;;
57323;SDS011;43160;51.008;18.248;2023-06-19T10:18:14;11.70;;;5.70;;
57323;SDS011;43160;51.008;18.248;2023-06-19T10:28:00;11.30;;;4.90;;
57323;SDS011;43160;51.008;18.248;2023-06-19T10:37:47;11.60;;;6.10;;
57323;SDS011;43160;51.008;18.248;2023-06-19T10:47:34;9.10;;;4.30;;
57323;SDS011;43160;51.008;18.248;2023-06-19T10:57:28;11.80;;;5.90;;
57323;SDS011;43160;51.008;18.248;2023-06-19T10:59:55;11.20;;;6.10;;
57323;SDS011;43160;51.008;18.248;2023-06-19T11:09:39;9.80;;;4.50;;
57323;SDS011;43160;51.008;18.248;2023-06-19T11:19:31;8.10;;;2.70;;
57323;SDS011;43160;51.008;18.248;2023-06-19T11:29:24;10.60;;;5.30;;
57323;SDS011;43160;51.008;18.248;2023-06-19T11:39:11;14.60;;;6.00;;
57323;SDS011;43160;51.008;18.248;2023-06-19T11:49:07;9.50;;;4.30;;
57323;SDS011;43160;51.008;18.248;2023-06-19T11:58:51;9.90;;;4.60;;
57323;SDS011;43160;51.008;18.248;2023-06-19T12:08:34;9.90;;;4.70;;
57323;SDS011;43160;51.008;18.248;2023-06-19T12:18:20;10.40;;;5.20;;
57323;SDS011;43160;51.008;18.248;2023-06-19T12:28:03;9.80;;;4.40;;
57323;SDS011;43160;51.008;18.248;2023-06-19T12:37:51;15.80;;;4.90;;
57323;SDS011;43160;51.008;18.248;2023-06-19T12:47:36;8.00;;;3.30;;
57323;SDS011;43160;51.008;18.248;2023-06-19T12:57:25;9.20;;;3.60;;
57323;SDS011;43160;51.008;18.248;2023-06-19T13:07:08;10.00;;;4.60;;
57323;SDS011;43160;51.008;18.248;2023-06-19T13:16:53;9.60;;;4.70;;
57323;SDS011;43160;51.008;18.248;2023-06-19T13:26:37;9.50;;;4.40;;
57323;SDS011;43160;51.008;18.248;2023-06-19T13:36:20;8.30;;;2.80;;
57323;SDS011;43160;51.008;18.248;2023-06-19T13:46:06;9.20;;;3.70;;
57323;SDS011;43160;51.008;18.248;2023-06-19T13:55:54;9.00;;;3.50;;
57323;SDS011;43160;51.008;18.248;2023-06-19T14:05:38;9.60;;;3.90;;
57323;SDS011;43160;51.008;18.248;2023-06-19T14:15:22;7.00;;;2.60;;
57323;SDS011;43160;51.008;18.248;2023-06-19T14:25:05;8.80;;;3.60;;
57323;SDS011;43160;51.008;18.248;2023-06-19T14:34:51;8.90;;;3.20;;
57323;SDS011;43160;51.008;18.248;2023-06-19T14:44:35;9.60;;;4.20;;
57323;SDS011;43160;51.008;18.248;2023-06-19T14:54:22;8.90;;;3.70;;
57323;SDS011;43160;51.008;18.248;2023-06-19T15:04:06;9.20;;;4.00;;
57323;SDS011;43160;51.008;18.248;2023-06-19T15:13:49;9.50;;;2.90;;
57323;SDS011;43160;51.008;18.248;2023-06-19T15:23:34;8.90;;;3.30;;
57323;SDS011;43160;51.008;18.248;2023-06-19T15:33:17;8.70;;;3.40;;
57323;SDS011;43160;51.008;18.248;2023-06-19T15:43:01;8.70;;;3.80;;
57323;SDS011;43160;51.008;18.248;2023-06-19T15:52:44;11.90;;;3.10;;
57323;SDS011;43160;51.008;18.248;2023-06-19T16:02:30;8.10;;;3.00;;
57323;SDS011;43160;51.008;18.248;2023-06-19T16:12:14;8.60;;;3.60;;
57323;SDS011;43160;51.008;18.248;2023-06-19T16:21:58;9.30;;;3.90;;
57323;SDS011;43160;51.008;18.248;2023-06-19T16:31:41;8.00;;;3.00;;
57323;SDS011;43160;51.008;18.248;2023-06-19T16:41:26;9.60;;;3.80;;
57323;SDS011;43160;51.008;18.248;2023-06-19T16:51:12;9.30;;;4.00;;
57323;SDS011;43160;51.008;18.248;2023-06-19T17:00:56;10.20;;;4.10;;
57323;SDS011;43160;51.008;18.248;2023-06-19T17:10:39;9.90;;;4.10;;
57323;SDS011;43160;51.008;18.248;2023-06-19T17:20:23;10.60;;;5.10;;
57323;SDS011;43160;51.008;18.248;2023-06-19T17:30:07;11.00;;;5.40;;
57323;SDS011;43160;51.008;18.248;2023-06-19T17:39:58;10.80;;;5.40;;
57323;SDS011;43160;51.008;18.248;2023-06-19T17:49:43;13.00;;;6.00;;
57323;SDS011;43160;51.008;18.248;2023-06-19T17:59:26;10.80;;;5.00;;
57323;SDS011;43160;51.008;18.248;2023-06-19T18:09:10;12.40;;;5.70;;
57323;SDS011;43160;51.008;18.248;2023-06-19T18:26:10;12.10;;;6.30;;
57323;SDS011;43160;51.008;18.248;2023-06-19T18:35:53;10.60;;;5.60;;
57323;SDS011;43160;51.008;18.248;2023-06-19T18:52:53;11.20;;;5.50;;
57323;SDS011;43160;51.008;18.248;2023-06-19T19:02:40;11.10;;;5.30;;
57323;SDS011;43160;51.008;18.248;2023-06-19T19:12:24;14.00;;;6.30;;
57323;SDS011;43160;51.008;18.248;2023-06-19T19:22:07;11.90;;;5.80;;
57323;SDS011;43160;51.008;18.248;2023-06-19T19:31:50;13.30;;;6.40;;
57323;SDS011;43160;51.008;18.248;2023-06-19T19:41:38;12.00;;;5.00;;
57323;SDS011;43160;51.008;18.248;2023-06-19T19:51:21;12.90;;;6.30;;
57323;SDS011;43160;51.008;18.248;2023-06-19T20:01:04;13.90;;;6.90;;
57323;SDS011;43160;51.008;18.248;2023-06-19T20:10:48;18.40;;;9.70;;
57323;SDS011;43160;51.008;18.248;2023-06-19T20:20:31;21.40;;;10.90;;
57323;SDS011;43160;51.008;18.248;2023-06-19T20:30:17;12.90;;;5.00;;
57323;SDS011;43160;51.008;18.248;2023-06-19T20:40:00;22.10;;;9.40;;
57323;SDS011;43160;51.008;18.248;2023-06-19T20:49:49;20.10;;;9.80;;
57323;SDS011;43160;51.008;18.248;2023-06-19T20:59:31;18.60;;;8.90;;
57323;SDS011;43160;51.008;18.248;2023-06-19T21:09:18;18.70;;;8.80;;
57323;SDS011;43160;51.008;18.248;2023-06-19T21:19:01;19.10;;;9.70;;
57323;SDS011;43160;51.008;18.248;2023-06-19T21:28:44;15.70;;;8.30;;
57323;SDS011;43160;51.008;18.248;2023-06-19T21:38:32;22.30;;;9.50;;
57323;SDS011;43160;51.008;18.248;2023-06-19T21:48:19;19.00;;;10.00;;
57323;SDS011;43160;51.008;18.248;2023-06-19T21:58:03;13.60;;;7.70;;
57323;SDS011;43160;51.008;18.248;2023-06-19T22:07:47;15.40;;;8.20;;
57323;SDS011;43160;51.008;18.248;2023-06-19T22:17:31;14.10;;;7.70;;
57323;SDS011;43160;51.008;18.248;2023-06-19T22:27:17;20.00;;;8.30;;
57323;SDS011;43160;51.008;18.248;2023-06-19T22:37:00;19.50;;;8.30;;
57323;SDS011;43160;51.008;18.248;2023-06-19T22:46:44;12.50;;;6.20;;
57323;SDS011;43160;51.008;18.248;2023-06-19T22:56:31;14.70;;;7.40;;
57323;SDS011;43160;51.008;18.248;2023-06-19T23:06:21;19.50;;;8.80;;
57323;SDS011;43160;51.008;18.248;2023-06-19T23:16:07;17.60;;;8.10;;
57323;SDS011;43160;51.008;18.248;2023-06-19T23:25:56;14.80;;;5.40;;
57323;SDS011;43160;51.008;18.248;2023-06-19T23:35:45;14.20;;;6.80;;
57323;SDS011;43160;51.008;18.248;2023-06-19T23:45:31;14.50;;;7.90;;
57323;SDS011;43160;51.008;18.248;2023-06-19T23:55:14;18.80;;;9.70;;
